sensor_id;sensor_type;location;lat;lon;timestamp;pressure;altitude;pressure_sealevel;temperature;humidity
67434;BME280;54305;47.950;6.572;2023-09-12T00:01:56;94040.97;;;21.53;84.28
67434;BME280;54305;47.950;6.572;2023-09-12T00:04:21;94042.00;;;21.52;89.38
67434;BME280;54305;47.950;6.572;2023-09-12T00:06:46;94040.78;;;21.43;86.91
67434;BME280;54305;47.950;6.572;2023-09-12T00:09:12;94032.94;;;21.48;83.55
67434;BME280;54305;47.950;6.572;2023-09-12T00:11:37;94030.84;;;21.50;84.35
67434;BME280;54305;47.950;6.572;2023-09-12T00:14:02;94032.25;;;21.41;86.46
67434;BME280;54305;47.950;6.572;2023-09-12T00:16:28;94038.13;;;21.43;86.60
67434;BME280;54305;47.950;6.572;2023-09-12T00:18:53;94036.75;;;21.41;88.43
67434;BME280;54305;47.950;6.572;2023-09-12T00:21:18;94041.22;;;21.40;83.19
67434;BME280;54305;47.950;6.572;2023-09-12T00:23:43;94035.25;;;21.33;85.01
67434;BME280;54305;47.950;6.572;2023-09-12T00:26:09;94029.94;;;21.33;82.67
67434;BME280;54305;47.950;6.572;2023-09-12T00:28:34;94025.91;;;21.31;81.02
67434;BME280;54305;47.950;6.572;2023-09-12T00:30:59;94023.41;;;21.24;83.86
67434;BME280;54305;47.950;6.572;2023-09-12T00:33:25;94031.38;;;21.24;80.03
67434;BME280;54305;47.950;6.572;2023-09-12T00:35:50;94027.78;;;21.19;79.55
67434;BME280;54305;47.950;6.572;2023-09-12T00:38:15;94030.91;;;21.04;83.34
67434;BME280;54305;47.950;6.572;2023-09-12T00:40:41;94030.56;;;21.01;88.04
67434;BME280;54305;47.950;6.572;2023-09-12T00:43:06;94030.56;;;20.78;91.67
67434;BME280;54305;47.950;6.572;2023-09-12T00:45:31;94034.34;;;20.70;93.71
67434;BME280;54305;47.950;6.572;2023-09-12T00:47:59;94033.09;;;20.61;85.52
67434;BME280;54305;47.950;6.572;2023-09-12T00:50:26;94030.44;;;20.61;87.17
67434;BME280;54305;47.950;6.572;2023-09-12T00:52:53;94033.22;;;20.66;88.43
67434;BME280;54305;47.950;6.572;2023-09-12T00:55:18;94041.94;;;20.55;85.88
67434;BME280;54305;47.950;6.572;2023-09-12T00:57:44;94039.13;;;20.38;91.35
67434;BME280;54305;47.950;6.572;2023-09-12T01:00:11;94037.09;;;20.75;78.69
67434;BME280;54305;47.950;6.572;2023-09-12T01:02:38;94039.63;;;20.70;81.94
67434;BME280;54305;47.950;6.572;2023-09-12T01:05:05;94040.78;;;20.51;87.80
67434;BME280;54305;47.950;6.572;2023-09-12T01:07:31;94048.34;;;20.36;87.77
67434;BME280;54305;47.950;6.572;2023-09-12T01:09:56;94043.72;;;20.20;94.79
67434;BME280;54305;47.950;6.572;2023-09-12T01:12:21;94035.81;;;20.02;90.91
67434;BME280;54305;47.950;6.572;2023-09-12T01:14:47;94040.16;;;19.96;92.98
67434;BME280;54305;47.950;6.572;2023-09-12T01:17:12;94043.81;;;19.84;97.45
67434;BME280;54305;47.950;6.572;2023-09-12T01:19:37;94041.31;;;19.71;96.83
67434;BME280;54305;47.950;6.572;2023-09-12T01:22:07;94040.66;;;20.05;79.20
67434;BME280;54305;47.950;6.572;2023-09-12T01:27:24;94049.50;;;20.40;79.99
67434;BME280;54305;47.950;6.572;2023-09-12T01:29:58;94050.47;;;20.57;73.77
67434;BME280;54305;47.950;6.572;2023-09-12T01:32:25;94048.72;;;20.63;69.96
67434;BME280;54305;47.950;6.572;2023-09-12T01:34:51;94041.13;;;20.55;71.51
67434;BME280;54305;47.950;6.572;2023-09-12T01:37:16;94039.66;;;20.59;66.09
67434;BME280;54305;47.950;6.572;2023-09-12T01:39:42;94043.75;;;20.43;83.10
67434;BME280;54305;47.950;6.572;2023-09-12T01:42:08;94035.09;;;20.25;81.58
67434;BME280;54305;47.950;6.572;2023-09-12T01:44:35;94042.34;;;19.99;89.74
67434;BME280;54305;47.950;6.572;2023-09-12T01:47:02;94038.81;;;19.76;92.60
67434;BME280;54305;47.950;6.572;2023-09-12T01:49:28;94036.81;;;19.60;90.35
67434;BME280;54305;47.950;6.572;2023-09-12T01:51:54;94033.28;;;19.48;91.48
67434;BME280;54305;47.950;6.572;2023-09-12T01:54:20;94044.31;;;19.45;94.03
67434;BME280;54305;47.950;6.572;2023-09-12T01:56:46;94043.28;;;19.28;95.50
67434;BME280;54305;47.950;6.572;2023-09-12T01:59:11;94042.09;;;19.24;95.90
67434;BME280;54305;47.950;6.572;2023-09-12T02:01:36;94046.63;;;19.17;97.97
67434;BME280;54305;47.950;6.572;2023-09-12T02:04:02;94044.28;;;19.09;96.31
67434;BME280;54305;47.950;6.572;2023-09-12T02:06:28;94044.41;;;18.96;95.42
67434;BME280;54305;47.950;6.572;2023-09-12T02:08:53;94041.63;;;18.91;97.29
67434;BME280;54305;47.950;6.572;2023-09-12T02:11:18;94038.41;;;18.89;97.51
67434;BME280;54305;47.950;6.572;2023-09-12T02:13:43;94042.94;;;18.82;97.05
67434;BME280;54305;47.950;6.572;2023-09-12T02:16:09;94030.38;;;18.77;94.79
67434;BME280;54305;47.950;6.572;2023-09-12T02:18:34;94036.19;;;18.68;95.78
67434;BME280;54305;47.950;6.572;2023-09-12T02:20:59;94029.88;;;18.69;92.41
67434;BME280;54305;47.950;6.572;2023-09-12T02:23:25;94028.53;;;18.60;92.77
67434;BME280;54305;47.950;6.572;2023-09-12T02:25:50;94036.22;;;18.61;98.53
67434;BME280;54305;47.950;6.572;2023-09-12T02:28:15;94035.88;;;18.58;98.85
67434;BME280;54305;47.950;6.572;2023-09-12T02:30:41;94029.41;;;18.54;97.54
67434;BME280;54305;47.950;6.572;2023-09-12T02:33:06;94036.72;;;18.52;91.89
67434;BME280;54305;47.950;6.572;2023-09-12T02:35:31;94039.19;;;18.47;94.71
67434;BME280;54305;47.950;6.572;2023-09-12T02:37:56;94038.00;;;18.43;99.07
67434;BME280;54305;47.950;6.572;2023-09-12T02:40:22;94031.97;;;18.36;100.00
67434;BME280;54305;47.950;6.572;2023-09-12T02:42:47;94031.56;;;18.39;99.82
67434;BME280;54305;47.950;6.572;2023-09-12T02:45:12;94036.47;;;18.29;100.00
67434;BME280;54305;47.950;6.572;2023-09-12T02:47:38;94034.06;;;18.27;100.00
67434;BME280;54305;47.950;6.572;2023-09-12T02:50:03;94036.91;;;18.26;100.00
67434;BME280;54305;47.950;6.572;2023-09-12T02:52:28;94035.28;;;18.25;100.00
67434;BME280;54305;47.950;6.572;2023-09-12T02:54:54;94037.75;;;18.20;100.00
67434;BME280;54305;47.950;6.572;2023-09-12T02:57:19;94034.09;;;18.21;100.00
67434;BME280;54305;47.950;6.572;2023-09-12T02:59:44;94035.72;;;18.22;100.00
67434;BME280;54305;47.950;6.572;2023-09-12T03:02:09;94034.09;;;18.21;100.00
67434;BME280;54305;47.950;6.572;2023-09-12T03:04:35;94032.50;;;18.20;100.00
67434;BME280;54305;47.950;6.572;2023-09-12T03:07:01;94032.97;;;18.10;100.00
67434;BME280;54305;47.950;6.572;2023-09-12T03:09:26;94037.00;;;18.13;100.00
67434;BME280;54305;47.950;6.572;2023-09-12T03:11:51;94033.78;;;18.11;100.00
67434;BME280;54305;47.950;6.572;2023-09-12T03:14:16;94031.13;;;18.11;100.00
67434;BME280;54305;47.950;6.572;2023-09-12T03:16:42;94023.81;;;18.13;100.00
67434;BME280;54305;47.950;6.572;2023-09-12T03:19:07;94016.56;;;18.08;100.00
67434;BME280;54305;47.950;6.572;2023-09-12T03:21:32;94013.84;;;18.21;100.00
67434;BME280;54305;47.950;6.572;2023-09-12T03:23:57;94012.16;;;18.27;100.00
67434;BME280;54305;47.950;6.572;2023-09-12T03:26:23;94007.69;;;18.34;100.00
67434;BME280;54305;47.950;6.572;2023-09-12T03:28:50;94016.59;;;18.33;100.00
67434;BME280;54305;47.950;6.572;2023-09-12T03:31:16;94018.66;;;18.24;100.00
67434;BME280;54305;47.950;6.572;2023-09-12T03:33:42;94009.78;;;18.19;100.00
67434;BME280;54305;47.950;6.572;2023-09-12T03:36:07;94011.41;;;18.20;100.00
67434;BME280;54305;47.950;6.572;2023-09-12T03:38:33;94014.47;;;18.17;100.00
67434;BME280;54305;47.950;6.572;2023-09-12T03:40:58;94001.19;;;18.30;100.00
67434;BME280;54305;47.950;6.572;2023-09-12T03:43:24;94006.25;;;18.31;100.00
67434;BME280;54305;47.950;6.572;2023-09-12T03:45:50;94008.94;;;18.25;100.00
67434;BME280;54305;47.950;6.572;2023-09-12T03:48:15;94006.03;;;18.33;100.00
67434;BME280;54305;47.950;6.572;2023-09-12T03:50:40;94017.59;;;18.32;100.00
67434;BME280;54305;47.950;6.572;2023-09-12T03:53:05;94009.78;;;18.19;100.00
67434;BME280;54305;47.950;6.572;2023-09-12T03:55:31;94020.00;;;18.09;100.00
67434;BME280;54305;47.950;6.572;2023-09-12T03:57:56;94019.25;;;18.02;100.00
67434;BME280;54305;47.950;6.572;2023-09-12T04:00:22;94016.84;;;17.94;100.00
67434;BME280;54305;47.950;6.572;2023-09-12T04:02:47;94013.03;;;17.90;100.00
67434;BME280;54305;47.950;6.572;2023-09-12T04:05:13;94017.03;;;17.99;100.00
67434;BME280;54305;47.950;6.572;2023-09-12T04:07:39;94013.09;;;18.08;100.00
67434;BME280;54305;47.950;6.572;2023-09-12T04:10:04;94020.75;;;18.16;100.00
67434;BME280;54305;47.950;6.572;2023-09-12T04:12:29;94015.13;;;18.12;100.00
67434;BME280;54305;47.950;6.572;2023-09-12T04:14:54;94014.84;;;17.96;100.00
67434;BME280;54305;47.950;6.572;2023-09-12T04:17:20;94024.19;;;17.92;100.00
67434;BME280;54305;47.950;6.572;2023-09-12T04:19:45;94013.38;;;18.00;100.00
67434;BME280;54305;47.950;6.572;2023-09-12T04:22:10;94008.66;;;18.08;100.00
67434;BME280;54305;47.950;6.572;2023-09-12T04:24:35;94000.91;;;18.13;100.00
67434;BME280;54305;47.950;6.572;2023-09-12T04:27:01;94011.81;;;18.17;100.00
67434;BME280;54305;47.950;6.572;2023-09-12T04:29:26;94009.78;;;18.19;100.00
67434;BME280;54305;47.950;6.572;2023-09-12T04:31:52;94009.34;;;18.22;100.00
67434;BME280;54305;47.950;6.572;2023-09-12T04:34:23;94010.13;;;18.29;100.00
67434;BME280;54305;47.950;6.572;2023-09-12T04:36:49;94010.53;;;18.26;100.00
67434;BME280;54305;47.950;6.572;2023-09-12T04:39:14;94012.16;;;18.27;100.00
67434;BME280;54305;47.950;6.572;2023-09-12T04:41:39;94017.22;;;18.28;100.00
67434;BME280;54305;47.950;6.572;2023-09-12T04:44:05;94016.16;;;18.36;100.00
67434;BME280;54305;47.950;6.572;2023-09-12T04:46:30;94019.03;;;18.28;100.00
67434;BME280;54305;47.950;6.572;2023-09-12T04:48:55;94018.81;;;18.05;100.00
67434;BME280;54305;47.950;6.572;2023-09-12T04:51:20;94024.94;;;17.99;100.00
67434;BME280;54305;47.950;6.572;2023-09-12T04:53:45;94029.19;;;18.00;100.00
67434;BME280;54305;47.950;6.572;2023-09-12T04:56:16;94028.59;;;17.98;100.00
67434;BME280;54305;47.950;6.572;2023-09-12T04:58:41;94029.03;;;17.95;100.00
67434;BME280;54305;47.950;6.572;2023-09-12T05:01:07;94030.31;;;17.86;100.00
67434;BME280;54305;47.950;6.572;2023-09-12T05:03:32;94035.41;;;17.81;100.00
67434;BME280;54305;47.950;6.572;2023-09-12T05:05:58;94043.03;;;17.89;100.00
67434;BME280;54305;47.950;6.572;2023-09-12T05:08:24;94033.94;;;17.85;100.00
67434;BME280;54305;47.950;6.572;2023-09-12T05:10:49;94034.34;;;17.88;100.00
67434;BME280;54305;47.950;6.572;2023-09-12T05:13:15;94030.47;;;17.91;100.00
67434;BME280;54305;47.950;6.572;2023-09-12T05:15:40;94035.00;;;18.08;100.00
67434;BME280;54305;47.950;6.572;2023-09-12T05:18:06;94041.13;;;18.02;100.00
67434;BME280;54305;47.950;6.572;2023-09-12T05:20:32;94039.56;;;17.95;100.00
67434;BME280;54305;47.950;6.572;2023-09-12T05:22:57;94046.16;;;18.04;100.00
67434;BME280;54305;47.950;6.572;2023-09-12T05:25:22;94039.50;;;18.57;100.00
67434;BME280;54305;47.950;6.572;2023-09-12T05:27:47;94041.66;;;18.42;100.00
67434;BME280;54305;47.950;6.572;2023-09-12T05:30:13;94040.13;;;18.28;100.00
67434;BME280;54305;47.950;6.572;2023-09-12T05:32:38;94042.19;;;18.26;100.00
67434;BME280;54305;47.950;6.572;2023-09-12T05:35:03;94044.66;;;18.21;100.00
67434;BME280;54305;47.950;6.572;2023-09-12T05:37:29;94038.19;;;18.17;100.00
67434;BME280;54305;47.950;6.572;2023-09-12T05:39:54;94043.53;;;18.04;100.00
67434;BME280;54305;47.950;6.572;2023-09-12T05:42:19;94039.56;;;17.95;100.00
67434;BME280;54305;47.950;6.572;2023-09-12T05:44:46;94037.94;;;17.94;100.00
67434;BME280;54305;47.950;6.572;2023-09-12T05:47:11;94039.56;;;17.95;100.00
67434;BME280;54305;47.950;6.572;2023-09-12T05:49:36;94029.81;;;17.95;100.00
67434;BME280;54305;47.950;6.572;2023-09-12T05:52:02;94031.91;;;17.87;100.00
67434;BME280;54305;47.950;6.572;2023-09-12T05:54:27;94034.19;;;17.77;100.00
67434;BME280;54305;47.950;6.572;2023-09-12T05:56:53;94035.63;;;17.73;100.00
67434;BME280;54305;47.950;6.572;2023-09-12T05:59:19;94039.25;;;17.78;100.00
67434;BME280;54305;47.950;6.572;2023-09-12T06:01:44;94040.03;;;17.85;100.00
67434;BME280;54305;47.950;6.572;2023-09-12T06:04:10;94035.97;;;17.83;100.00
67434;BME280;54305;47.950;6.572;2023-09-12T06:06:35;94037.59;;;17.84;100.00
67434;BME280;54305;47.950;6.572;2023-09-12T06:09:00;94043.81;;;17.96;100.00
67434;BME280;54305;47.950;6.572;2023-09-12T06:11:26;94054.50;;;18.07;100.00
67434;BME280;54305;47.950;6.572;2023-09-12T06:13:51;94062.50;;;18.19;100.00
67434;BME280;54305;47.950;6.572;2023-09-12T06:16:16;94058.97;;;18.31;100.00
67434;BME280;54305;47.950;6.572;2023-09-12T06:18:41;94069.63;;;18.43;100.00
67434;BME280;54305;47.950;6.572;2023-09-12T06:21:07;94072.44;;;18.48;100.00
67434;BME280;54305;47.950;6.572;2023-09-12T06:23:33;94052.75;;;18.75;100.00
67434;BME280;54305;47.950;6.572;2023-09-12T06:25:59;94056.00;;;18.95;100.00
67434;BME280;54305;47.950;6.572;2023-09-12T06:28:25;94064.00;;;19.06;100.00
67434;BME280;54305;47.950;6.572;2023-09-12T06:30:50;94060.19;;;19.02;100.00
67434;BME280;54305;47.950;6.572;2023-09-12T06:33:15;94067.00;;;19.10;100.00
67434;BME280;54305;47.950;6.572;2023-09-12T06:35:40;94070.97;;;19.19;100.00
67434;BME280;54305;47.950;6.572;2023-09-12T06:38:06;94063.09;;;19.37;100.00
67434;BME280;54305;47.950;6.572;2023-09-12T06:40:31;94063.22;;;19.42;100.00
67434;BME280;54305;47.950;6.572;2023-09-12T06:42:56;94068.66;;;19.47;100.00
67434;BME280;54305;47.950;6.572;2023-09-12T06:45:21;94069.28;;;19.60;100.00
67434;BME280;54305;47.950;6.572;2023-09-12T06:47:47;94069.06;;;19.80;100.00
67434;BME280;54305;47.950;6.572;2023-09-12T06:50:12;94062.09;;;19.97;100.00
67434;BME280;54305;47.950;6.572;2023-09-12T06:52:37;94069.72;;;20.23;100.00
67434;BME280;54305;47.950;6.572;2023-09-12T06:55:03;94061.25;;;20.44;100.00
67434;BME280;54305;47.950;6.572;2023-09-12T06:57:28;94058.50;;;20.62;100.00
67434;BME280;54305;47.950;6.572;2023-09-12T06:59:54;94070.50;;;20.76;100.00
67434;BME280;54305;47.950;6.572;2023-09-12T07:02:19;94067.75;;;20.94;100.00
67434;BME280;54305;47.950;6.572;2023-09-12T07:04:44;94068.09;;;21.21;100.00
67434;BME280;54305;47.950;6.572;2023-09-12T07:07:10;94073.59;;;21.42;100.00
67434;BME280;54305;47.950;6.572;2023-09-12T07:09:35;94066.06;;;21.62;100.00
67434;BME280;54305;47.950;6.572;2023-09-12T07:12:00;94061.00;;;21.72;93.01
67434;BME280;54305;47.950;6.572;2023-09-12T07:14:25;94065.88;;;21.92;77.94
67434;BME280;54305;47.950;6.572;2023-09-12T07:16:51;94063.38;;;22.13;79.03
67434;BME280;54305;47.950;6.572;2023-09-12T07:19:16;94063.28;;;22.36;87.27
67434;BME280;54305;47.950;6.572;2023-09-12T07:21:41;94054.00;;;22.50;86.23
67434;BME280;54305;47.950;6.572;2023-09-12T07:24:06;94069.03;;;22.61;85.55
67434;BME280;54305;47.950;6.572;2023-09-12T07:26:32;94056.47;;;22.73;76.81
67434;BME280;54305;47.950;6.572;2023-09-12T07:28:57;94058.81;;;22.86;67.59
67434;BME280;54305;47.950;6.572;2023-09-12T07:31:23;94060.75;;;23.07;70.19
67434;BME280;54305;47.950;6.572;2023-09-12T07:33:48;94054.81;;;23.38;78.08
67434;BME280;54305;47.950;6.572;2023-09-12T07:36:13;94060.50;;;23.47;63.84
67434;BME280;54305;47.950;6.572;2023-09-12T07:38:39;94068.84;;;23.55;63.18
67434;BME280;54305;47.950;6.572;2023-09-12T07:41:04;94063.19;;;23.68;69.67
67434;BME280;54305;47.950;6.572;2023-09-12T07:43:29;94072.34;;;23.77;55.48
67434;BME280;54305;47.950;6.572;2023-09-12T07:45:58;94058.09;;;23.88;61.43
67434;BME280;54305;47.950;6.572;2023-09-12T07:48:23;94065.31;;;24.09;66.18
67434;BME280;54305;47.950;6.572;2023-09-12T07:50:49;94079.75;;;24.18;65.22
67434;BME280;54305;47.950;6.572;2023-09-12T07:53:14;94080.97;;;24.32;61.92
67434;BME280;54305;47.950;6.572;2023-09-12T07:55:39;94083.41;;;24.12;53.48
67434;BME280;54305;47.950;6.572;2023-09-12T07:58:17;94084.09;;;23.60;53.63
67434;BME280;54305;47.950;6.572;2023-09-12T08:00:46;94084.97;;;24.08;55.66
67434;BME280;54305;47.950;6.572;2023-09-12T08:03:11;94079.88;;;24.28;59.58
67434;BME280;54305;47.950;6.572;2023-09-12T08:05:37;94095.03;;;24.54;61.74
67434;BME280;54305;47.950;6.572;2023-09-12T08:08:03;94096.09;;;24.53;59.05
67434;BME280;54305;47.950;6.572;2023-09-12T08:10:28;94088.59;;;24.50;57.60
67434;BME280;54305;47.950;6.572;2023-09-12T08:12:54;94097.78;;;24.11;56.90
67434;BME280;54305;47.950;6.572;2023-09-12T08:15:19;94101.03;;;24.18;60.84
67434;BME280;54305;47.950;6.572;2023-09-12T08:17:44;94099.91;;;24.09;59.97
67434;BME280;54305;47.950;6.572;2023-09-12T08:20:10;94110.09;;;24.17;54.04
67434;BME280;54305;47.950;6.572;2023-09-12T08:22:38;94100.59;;;24.26;56.66
67434;BME280;54305;47.950;6.572;2023-09-12T08:25:04;94095.97;;;24.38;54.72
67434;BME280;54305;47.950;6.572;2023-09-12T08:27:29;94096.50;;;23.92;54.26
67434;BME280;54305;47.950;6.572;2023-09-12T08:29:55;94094.94;;;24.44;51.02
67434;BME280;54305;47.950;6.572;2023-09-12T08:32:20;94093.22;;;24.81;52.50
67434;BME280;54305;47.950;6.572;2023-09-12T08:34:45;94093.47;;;24.80;51.07
67434;BME280;54305;47.950;6.572;2023-09-12T08:37:10;94097.16;;;24.52;55.30
67434;BME280;54305;47.950;6.572;2023-09-12T08:39:40;94097.66;;;24.49;53.05
67434;BME280;54305;47.950;6.572;2023-09-12T08:42:07;94093.28;;;24.91;51.52
67434;BME280;54305;47.950;6.572;2023-09-12T08:44:34;94095.53;;;24.51;50.66
67434;BME280;54305;47.950;6.572;2023-09-12T08:46:59;94093.03;;;24.66;53.91
67434;BME280;54305;47.950;6.572;2023-09-12T08:49:26;94092.06;;;24.72;54.35
67434;BME280;54305;47.950;6.572;2023-09-12T08:51:51;94087.53;;;25.09;51.22
67434;BME280;54305;47.950;6.572;2023-09-12T08:54:17;94095.78;;;25.34;49.21
67434;BME280;54305;47.950;6.572;2023-09-12T08:56:42;94089.19;;;25.10;45.64
67434;BME280;54305;47.950;6.572;2023-09-12T08:59:08;94085.28;;;25.64;46.21
67434;BME280;54305;47.950;6.572;2023-09-12T09:01:34;94090.31;;;25.24;45.64
67434;BME280;54305;47.950;6.572;2023-09-12T09:04:01;94090.19;;;25.04;44.33
67434;BME280;54305;47.950;6.572;2023-09-12T09:06:27;94088.09;;;25.11;39.88
67434;BME280;54305;47.950;6.572;2023-09-12T09:08:55;94083.59;;;25.17;44.30
67434;BME280;54305;47.950;6.572;2023-09-12T09:11:21;94080.97;;;25.22;42.78
67434;BME280;54305;47.950;6.572;2023-09-12T09:13:46;94081.22;;;25.15;42.35
67434;BME280;54305;47.950;6.572;2023-09-12T09:21:19;94082.72;;;25.89;43.77
67434;BME280;54305;47.950;6.572;2023-09-12T09:23:45;94083.94;;;26.23;42.42
67434;BME280;54305;47.950;6.572;2023-09-12T09:26:14;94076.13;;;25.97;41.11
67434;BME280;54305;47.950;6.572;2023-09-12T09:28:39;94083.97;;;26.33;43.25
67434;BME280;54305;47.950;6.572;2023-09-12T09:31:05;94076.59;;;27.05;44.24
67434;BME280;54305;47.950;6.572;2023-09-12T09:33:35;94068.84;;;27.34;41.42
67434;BME280;54305;47.950;6.572;2023-09-12T09:36:04;94068.59;;;27.30;39.75
67434;BME280;54305;47.950;6.572;2023-09-12T09:38:30;94083.06;;;27.19;39.98
67434;BME280;54305;47.950;6.572;2023-09-12T09:40:55;94079.28;;;26.80;39.55
67434;BME280;54305;47.950;6.572;2023-09-12T09:43:21;94081.13;;;26.80;40.40
67434;BME280;54305;47.950;6.572;2023-09-12T09:45:46;94085.41;;;26.71;39.41
67434;BME280;54305;47.950;6.572;2023-09-12T09:48:21;94074.13;;;26.44;40.17
67434;BME280;54305;47.950;6.572;2023-09-12T09:50:47;94074.81;;;26.04;40.72
67434;BME280;54305;47.950;6.572;2023-09-12T09:53:12;94077.13;;;26.72;42.21
67434;BME280;54305;47.950;6.572;2023-09-12T09:55:37;94071.72;;;26.52;39.24
67434;BME280;54305;47.950;6.572;2023-09-12T09:58:05;94069.09;;;26.57;41.72
67434;BME280;54305;47.950;6.572;2023-09-12T10:00:30;94064.31;;;27.29;39.27
67434;BME280;54305;47.950;6.572;2023-09-12T10:02:58;94079.28;;;26.70;40.92
67434;BME280;54305;47.950;6.572;2023-09-12T10:05:24;94066.88;;;26.29;40.66
67434;BME280;54305;47.950;6.572;2023-09-12T10:07:50;94063.59;;;25.97;43.67
67434;BME280;54305;47.950;6.572;2023-09-12T10:10:18;94072.03;;;26.66;44.03
67434;BME280;54305;47.950;6.572;2023-09-12T10:12:57;94070.75;;;27.08;40.65
67434;BME280;54305;47.950;6.572;2023-09-12T10:15:23;94070.19;;;27.31;39.55
67434;BME280;54305;47.950;6.572;2023-09-12T10:17:56;94059.97;;;27.63;39.03
67434;BME280;54305;47.950;6.572;2023-09-12T10:20:23;94070.94;;;28.40;39.30
67434;BME280;54305;47.950;6.572;2023-09-12T10:23:33;94062.56;;;28.90;37.07
67434;BME280;54305;47.950;6.572;2023-09-12T10:25:38;94056.28;;;28.66;37.78
67434;BME280;54305;47.950;6.572;2023-09-12T10:28:04;94058.63;;;29.45;37.45
67434;BME280;54305;47.950;6.572;2023-09-12T10:30:30;94060.41;;;28.92;36.43
67434;BME280;54305;47.950;6.572;2023-09-12T10:32:56;94058.72;;;29.01;37.74
67434;BME280;54305;47.950;6.572;2023-09-12T10:35:22;94058.69;;;28.24;40.28
67434;BME280;54305;47.950;6.572;2023-09-12T10:37:47;94052.91;;;27.97;39.19
67434;BME280;54305;47.950;6.572;2023-09-12T10:40:14;94057.44;;;29.84;38.10
67434;BME280;54305;47.950;6.572;2023-09-12T10:42:40;94052.53;;;30.33;35.73
67434;BME280;54305;47.950;6.572;2023-09-12T10:45:07;94058.13;;;30.55;33.96
67434;BME280;54305;47.950;6.572;2023-09-12T10:47:34;94050.78;;;30.24;33.23
67434;BME280;54305;47.950;6.572;2023-09-12T10:50:00;94058.28;;;30.03;33.89
67434;BME280;54305;47.950;6.572;2023-09-12T10:52:26;94057.19;;;28.90;36.10
67434;BME280;54305;47.950;6.572;2023-09-12T10:54:52;94065.06;;;29.15;36.63
67434;BME280;54305;47.950;6.572;2023-09-12T10:57:17;94070.16;;;27.41;38.68
67434;BME280;54305;47.950;6.572;2023-09-12T11:02:36;94069.00;;;26.27;40.59
67434;BME280;54305;47.950;6.572;2023-09-12T11:05:04;94067.50;;;26.56;40.92
67434;BME280;54305;47.950;6.572;2023-09-12T11:07:44;94070.16;;;26.56;42.23
67434;BME280;54305;47.950;6.572;2023-09-12T11:12:39;94064.03;;;27.41;40.48
67434;BME280;54305;47.950;6.572;2023-09-12T11:15:05;94074.72;;;27.01;42.12
67434;BME280;54305;47.950;6.572;2023-09-12T11:17:36;94063.75;;;27.07;42.92
67434;BME280;54305;47.950;6.572;2023-09-12T11:20:02;94068.56;;;27.50;40.24
67434;BME280;54305;47.950;6.572;2023-09-12T11:22:35;94056.44;;;28.46;39.50
67434;BME280;54305;47.950;6.572;2023-09-12T11:25:01;94061.44;;;28.96;37.72
67434;BME280;54305;47.950;6.572;2023-09-12T11:27:33;94059.06;;;29.28;38.89
67434;BME280;54305;47.950;6.572;2023-09-12T11:30:08;94063.00;;;30.35;35.36
67434;BME280;54305;47.950;6.572;2023-09-12T11:32:37;94052.97;;;28.41;37.86
67434;BME280;54305;47.950;6.572;2023-09-12T11:35:09;94063.75;;;27.52;43.23
67434;BME280;54305;47.950;6.572;2023-09-12T11:37:35;94069.09;;;26.67;44.59
67434;BME280;54305;47.950;6.572;2023-09-12T11:40:03;94075.00;;;27.14;42.69
67434;BME280;54305;47.950;6.572;2023-09-12T11:42:41;94066.34;;;27.77;39.06
67434;BME280;54305;47.950;6.572;2023-09-12T11:45:11;94072.84;;;26.61;43.45
67434;BME280;54305;47.950;6.572;2023-09-12T11:47:44;94070.72;;;26.88;42.08
67434;BME280;54305;47.950;6.572;2023-09-12T11:50:29;94068.84;;;26.64;39.94
67434;BME280;54305;47.950;6.572;2023-09-12T11:53:12;94060.56;;;27.35;41.25
67434;BME280;54305;47.950;6.572;2023-09-12T11:55:41;94059.97;;;26.53;39.00
67434;BME280;54305;47.950;6.572;2023-09-12T11:58:07;94058.13;;;27.39;40.21
67434;BME280;54305;47.950;6.572;2023-09-12T12:00:33;94049.50;;;28.35;39.87
67434;BME280;54305;47.950;6.572;2023-09-12T12:02:58;94049.19;;;27.78;37.19
67434;BME280;54305;47.950;6.572;2023-09-12T12:05:23;94044.13;;;28.45;36.32
67434;BME280;54305;47.950;6.572;2023-09-12T12:07:48;94045.06;;;28.64;33.37
67434;BME280;54305;47.950;6.572;2023-09-12T12:10:15;94035.78;;;29.47;34.67
67434;BME280;54305;47.950;6.572;2023-09-12T12:12:42;94039.47;;;28.61;30.40
67434;BME280;54305;47.950;6.572;2023-09-12T12:15:12;94043.22;;;28.11;31.79
67434;BME280;54305;47.950;6.572;2023-09-12T12:17:37;94043.91;;;27.63;30.44
67434;BME280;54305;47.950;6.572;2023-09-12T12:20:06;94040.53;;;28.11;31.43
67434;BME280;54305;47.950;6.572;2023-09-12T12:22:33;94044.00;;;27.08;31.25
67434;BME280;54305;47.950;6.572;2023-09-12T12:25:05;94038.63;;;26.88;32.32
67434;BME280;54305;47.950;6.572;2023-09-12T12:27:30;94038.50;;;27.73;32.30
67434;BME280;54305;47.950;6.572;2023-09-12T12:29:55;94026.59;;;28.09;32.14
67434;BME280;54305;47.950;6.572;2023-09-12T12:32:21;94023.53;;;28.74;32.06
67434;BME280;54305;47.950;6.572;2023-09-12T12:34:49;94013.19;;;30.00;32.21
67434;BME280;54305;47.950;6.572;2023-09-12T12:37:14;94007.28;;;30.40;30.83
67434;BME280;54305;47.950;6.572;2023-09-12T12:39:42;94020.91;;;29.60;31.53
67434;BME280;54305;47.950;6.572;2023-09-12T12:42:07;94008.88;;;29.00;30.69
67434;BME280;54305;47.950;6.572;2023-09-12T12:44:34;94006.81;;;28.05;31.18
67434;BME280;54305;47.950;6.572;2023-09-12T12:47:03;94006.56;;;26.98;34.02
67434;BME280;54305;47.950;6.572;2023-09-12T12:49:28;94012.97;;;27.37;36.99
67434;BME280;54305;47.950;6.572;2023-09-12T12:51:53;94006.81;;;28.10;34.37
67434;BME280;54305;47.950;6.572;2023-09-12T12:54:21;94001.88;;;28.71;33.34
67434;BME280;54305;47.950;6.572;2023-09-12T12:56:47;94001.22;;;28.50;33.97
67434;BME280;54305;47.950;6.572;2023-09-12T12:59:13;94002.84;;;28.46;34.66
67434;BME280;54305;47.950;6.572;2023-09-12T13:01:38;94000.72;;;28.38;33.87
67434;BME280;54305;47.950;6.572;2023-09-12T13:04:04;93991.25;;;28.89;33.73
67434;BME280;54305;47.950;6.572;2023-09-12T13:06:30;93992.53;;;29.25;34.50